Time;durP1;ratioP1;P1;durP2;ratioP2;P2;SDS_P1;SDS_P2;PMS_P1;PMS_P2;Temp;Humidity;BMP_temperature;BMP_pressure;BME280_temperature;BME280_humidity;BME280_pressure;Samples;Min_cycle;Max_cycle;Signal;HPM_P1;HPM_P2
2022/07/13 00:02:04;;;;;;;3.07;2.17;;;21.20;99.90;;;;;;5007939;28;20454;-76
2022/07/13 00:04:30;;;;;;;3.47;3.17;;;21.10;99.90;;;;;;5001408;28;20456;-76
2022/07/13 00:06:58;;;;;;;9.00;2.77;;;21.10;99.90;;;;;;4997948;28;20896;-76
2022/07/13 00:09:25;;;;;;;3.93;2.60;;;21.00;99.90;;;;;;5002873;28;20443;-76
2022/07/13 00:11:52;;;;;;;2.13;2.00;;;21.00;99.90;;;;;;4999856;28;20451;-76
2022/07/13 00:14:18;;;;;;;2.33;2.13;;;21.00;99.90;;;;;;4997218;28;20451;-76
2022/07/13 00:16:45;;;;;;;3.30;2.17;;;21.00;99.90;;;;;;4995902;28;20529;-76
2022/07/13 00:19:12;;;;;;;3.13;2.57;;;21.00;99.90;;;;;;5004628;28;20508;-76
2022/07/13 00:21:39;;;;;;;2.67;2.03;;;21.00;99.90;;;;;;5006962;28;20996;-76
2022/07/13 00:24:07;;;;;;;2.13;2.03;;;20.90;99.90;;;;;;4995973;28;20466;-76
2022/07/13 00:26:34;;;;;;;2.30;2.20;;;20.80;99.90;;;;;;4997447;28;20623;-76
2022/07/13 00:29:00;;;;;;;2.73;2.37;;;20.70;99.90;;;;;;5003546;28;20865;-76
2022/07/13 00:31:27;;;;;;;3.17;2.83;;;20.60;99.90;;;;;;5002657;28;20454;-76
2022/07/13 00:33:54;;;;;;;2.60;2.40;;;20.40;99.90;;;;;;4998326;28;20451;-76
2022/07/13 00:36:20;;;;;;;3.70;2.70;;;20.30;99.90;;;;;;4997252;28;20592;-76
2022/07/13 00:38:48;;;;;;;2.60;2.40;;;20.30;99.90;;;;;;5003747;28;20474;-76
2022/07/13 00:41:15;;;;;;;3.10;2.77;;;20.20;99.90;;;;;;4992871;28;20985;-76
2022/07/13 00:43:42;;;;;;;2.70;2.50;;;20.20;99.90;;;;;;5001742;28;20522;-76
2022/07/13 00:46:09;;;;;;;3.43;2.57;;;20.10;99.90;;;;;;5002883;28;20478;-76
2022/07/13 00:48:39;;;;;;;2.87;2.67;;;20.10;99.90;;;;;;5003269;28;21009;-76
2022/07/13 00:51:06;;;;;;;8.93;2.63;;;20.10;99.90;;;;;;5001251;28;22108;-76
2022/07/13 00:53:35;;;;;;;2.60;2.40;;;20.10;99.90;;;;;;5002095;28;20583;-76
2022/07/13 00:56:04;;;;;;;2.10;1.90;;;20.10;99.90;;;;;;5006187;28;20525;-76
2022/07/13 00:58:32;;;;;;;2.13;2.00;;;20.10;99.90;;;;;;5002681;28;20498;-76
2022/07/13 01:00:59;;;;;;;2.20;2.10;;;20.10;99.90;;;;;;5006473;28;20840;-76
2022/07/13 01:03:26;;;;;;;2.27;2.07;;;20.20;99.90;;;;;;4995881;28;20497;-76
2022/07/13 01:05:54;;;;;;;2.20;2.10;;;20.20;99.90;;;;;;4998638;28;20473;-76
2022/07/13 01:08:21;;;;;;;2.00;1.90;;;20.20;99.90;;;;;;5002597;28;20459;-76
2022/07/13 01:10:48;;;;;;;2.40;2.20;;;20.30;99.90;;;;;;5002771;28;20512;-76
2022/07/13 01:13:17;;;;;;;3.03;1.90;;;20.30;99.90;;;;;;5001349;28;20516;-76
2022/07/13 01:15:45;;;;;;;3.97;2.03;;;20.40;99.90;;;;;;4999476;28;20470;-76
2022/07/13 01:18:13;;;;;;;2.90;2.30;;;20.40;99.90;;;;;;4997143;28;20478;-76
2022/07/13 01:20:40;;;;;;;3.00;2.60;;;20.40;99.90;;;;;;5005170;28;20442;-77
2022/07/13 01:23:10;;;;;;;2.40;2.17;;;20.30;99.90;;;;;;5005712;28;20841;-76
2022/07/13 01:25:38;;;;;;;2.60;2.40;;;20.30;99.90;;;;;;4996434;28;20487;-76
2022/07/13 01:28:05;;;;;;;6.33;2.67;;;20.30;99.90;;;;;;5008960;28;20512;-76
2022/07/13 01:30:31;;;;;;;2.20;2.10;;;20.30;99.90;;;;;;4999576;28;20451;-76
2022/07/13 01:32:58;;;;;;;3.20;2.90;;;20.30;99.90;;;;;;5003760;28;21025;-76
2022/07/13 01:35:25;;;;;;;2.60;2.40;;;20.20;99.90;;;;;;4995542;28;20487;-75
2022/07/13 01:37:53;;;;;;;3.93;2.30;;;20.20;99.90;;;;;;4994602;28;20450;-75
2022/07/13 01:40:21;;;;;;;3.33;2.33;;;20.20;99.90;;;;;;4998812;28;20421;-75
2022/07/13 01:42:49;;;;;;;2.70;2.43;;;20.10;99.90;;;;;;5008261;28;20497;-75
2022/07/13 01:45:17;;;;;;;3.10;2.37;;;20.00;99.90;;;;;;4995194;28;20931;-76
2022/07/13 01:47:46;;;;;;;2.57;2.40;;;19.90;99.90;;;;;;4998549;28;20425;-75
2022/07/13 01:50:15;;;;;;;2.87;2.67;;;19.80;99.90;;;;;;4998080;28;20497;-75
2022/07/13 01:52:42;;;;;;;5.00;2.70;;;19.80;99.90;;;;;;4990479;28;20451;-76
2022/07/13 01:55:11;;;;;;;2.57;2.37;;;19.70;99.90;;;;;;4996887;28;20443;-75
2022/07/13 01:57:39;;;;;;;2.77;2.57;;;19.50;99.90;;;;;;5000838;28;20446;-76
2022/07/13 02:00:08;;;;;;;4.23;2.80;;;19.50;99.90;;;;;;4997742;28;20462;-75
2022/07/13 02:02:35;;;;;;;3.80;2.90;;;19.40;99.90;;;;;;5003663;28;20432;-75
2022/07/13 02:05:02;;;;;;;4.17;2.53;;;19.30;99.90;;;;;;4997527;28;20430;-75
2022/07/13 02:07:29;;;;;;;2.83;2.60;;;19.30;99.90;;;;;;4991814;28;20455;-75
2022/07/13 02:09:55;;;;;;;3.20;3.00;;;19.20;99.90;;;;;;5005320;28;20516;-75
2022/07/13 02:12:22;;;;;;;3.93;3.47;;;19.20;99.90;;;;;;5000089;28;20947;-75
2022/07/13 02:14:50;;;;;;;4.80;2.97;;;19.10;99.90;;;;;;4999628;28;20451;-75
2022/07/13 02:17:17;;;;;;;2.80;2.60;;;19.10;99.90;;;;;;5000012;28;20467;-75
2022/07/13 02:19:43;;;;;;;3.60;2.80;;;19.00;99.90;;;;;;4999225;28;20549;-75
2022/07/13 02:22:10;;;;;;;2.90;2.70;;;19.00;99.90;;;;;;5001313;28;20421;-75
2022/07/13 02:24:37;;;;;;;3.23;2.93;;;19.10;99.90;;;;;;4995698;28;20470;-75
2022/07/13 02:27:03;;;;;;;8.70;2.70;;;19.10;99.90;;;;;;4999498;28;20540;-75
2022/07/13 02:29:30;;;;;;;3.83;2.90;;;19.10;99.90;;;;;;4995537;28;20450;-75
2022/07/13 02:31:58;;;;;;;2.97;2.77;;;19.10;99.90;;;;;;4995389;28;20483;-75
2022/07/13 02:34:27;;;;;;;3.40;3.00;;;19.10;99.90;;;;;;4993158;28;20434;-75
2022/07/13 02:36:54;;;;;;;3.43;3.13;;;19.10;99.90;;;;;;4993119;28;21005;-75
2022/07/13 02:39:20;;;;;;;9.03;2.80;;;19.20;99.90;;;;;;4998427;28;20493;-75
2022/07/13 02:41:47;;;;;;;2.70;2.50;;;19.20;99.90;;;;;;4995797;28;20464;-75
2022/07/13 02:44:14;;;;;;;2.70;2.50;;;19.10;99.90;;;;;;5001949;28;20429;-75
2022/07/13 02:46:41;;;;;;;2.70;2.50;;;19.10;99.90;;;;;;5002632;28;20498;-75
2022/07/13 02:49:08;;;;;;;4.87;2.80;;;19.00;99.90;;;;;;4998158;28;20451;-75
2022/07/13 02:51:35;;;;;;;3.30;3.00;;;19.00;99.90;;;;;;4993935;28;21017;-76
2022/07/13 02:54:02;;;;;;;3.10;2.80;;;19.00;99.90;;;;;;4998348;28;20432;-75
2022/07/13 02:56:29;;;;;;;4.07;2.50;;;19.00;99.90;;;;;;5004193;28;20441;-75
2022/07/13 02:58:55;;;;;;;3.03;2.83;;;19.00;99.90;;;;;;4994591;28;20982;-75
2022/07/13 03:01:22;;;;;;;11.90;2.80;;;19.00;99.90;;;;;;4997566;28;20424;-75
2022/07/13 03:03:49;;;;;;;5.50;2.90;;;19.00;99.90;;;;;;5002764;28;20425;-75
2022/07/13 03:06:17;;;;;;;3.33;3.07;;;19.00;99.90;;;;;;5002736;28;20445;-75
2022/07/13 03:08:43;;;;;;;3.10;2.90;;;18.90;99.90;;;;;;5003728;28;20421;-75
2022/07/13 03:11:10;;;;;;;3.10;2.60;;;18.90;99.90;;;;;;5000881;28;20418;-75
2022/07/13 03:13:36;;;;;;;2.80;2.60;;;18.80;99.90;;;;;;5009533;28;20433;-75
2022/07/13 03:16:04;;;;;;;4.37;2.53;;;18.80;99.90;;;;;;5006099;28;20496;-75
2022/07/13 03:18:31;;;;;;;3.40;2.73;;;18.70;99.90;;;;;;5002003;28;20451;-75
2022/07/13 03:20:57;;;;;;;3.73;2.70;;;18.70;99.90;;;;;;5004129;28;20451;-75
2022/07/13 03:23:25;;;;;;;2.93;2.63;;;18.70;99.90;;;;;;5009688;28;20450;-75
2022/07/13 03:25:52;;;;;;;3.87;2.83;;;18.70;99.90;;;;;;5007410;28;20467;-75
2022/07/13 03:28:18;;;;;;;3.27;2.87;;;18.70;99.90;;;;;;5005483;28;20480;-75
2022/07/13 03:30:45;;;;;;;4.90;2.80;;;18.70;99.90;;;;;;5005771;28;20446;-75
2022/07/13 03:33:12;;;;;;;6.87;3.40;;;18.80;99.90;;;;;;4996997;28;20855;-75
2022/07/13 03:35:38;;;;;;;3.10;2.87;;;18.80;99.90;;;;;;5004400;28;20528;-75
2022/07/13 03:38:05;;;;;;;3.20;2.87;;;18.80;99.90;;;;;;5003217;28;20458;-75
2022/07/13 03:40:33;;;;;;;2.50;2.30;;;18.80;99.90;;;;;;5000763;28;20465;-75
2022/07/13 03:42:59;;;;;;;2.80;2.60;;;18.50;99.90;;;;;;5003697;28;20926;-75
2022/07/13 03:45:26;;;;;;;3.20;2.90;;;18.70;99.90;;;;;;5004716;28;20823;-75
2022/07/13 03:47:53;;;;;;;2.90;2.70;;;18.70;99.90;;;;;;5001480;28;20454;-75
2022/07/13 03:50:20;;;;;;;3.27;2.97;;;18.70;99.90;;;;;;5005404;28;20442;-75
2022/07/13 03:52:47;;;;;;;3.60;2.70;;;18.70;99.90;;;;;;4999068;28;20484;-75
2022/07/13 03:55:14;;;;;;;5.10;3.23;;;18.70;99.90;;;;;;4999912;28;20499;-75
2022/07/13 03:57:42;;;;;;;3.03;2.83;;;18.70;99.90;;;;;;4999299;28;20433;-75
2022/07/13 04:00:09;;;;;;;3.23;2.93;;;18.70;99.90;;;;;;5001739;28;20499;-75
2022/07/13 04:02:36;;;;;;;4.67;3.27;;;18.70;99.90;;;;;;5001019;28;20459;-74
2022/07/13 04:05:03;;;;;;;3.00;2.80;;;18.70;99.90;;;;;;5006245;28;20455;-75
2022/07/13 04:07:30;;;;;;;3.30;3.00;;;18.60;99.90;;;;;;5001749;28;20458;-75
2022/07/13 04:09:56;;;;;;;2.70;2.50;;;18.60;99.90;;;;;;5005474;28;20922;-75
2022/07/13 04:12:23;;;;;;;2.67;2.47;;;18.60;99.90;;;;;;5006337;28;20497;-75
2022/07/13 04:14:51;;;;;;;4.37;3.03;;;18.60;99.90;;;;;;5002366;28;20788;-75
2022/07/13 04:17:18;;;;;;;10.83;2.63;;;18.50;99.90;;;;;;4997192;28;20983;-75
2022/07/13 04:19:44;;;;;;;4.80;3.20;;;18.50;99.90;;;;;;5000157;28;20449;-75
2022/07/13 04:22:11;;;;;;;5.73;3.40;;;18.50;99.90;;;;;;5000882;28;20443;-75
2022/07/13 04:24:37;;;;;;;3.00;2.80;;;18.50;99.90;;;;;;4999692;28;20459;-75
2022/07/13 04:27:04;;;;;;;3.20;3.00;;;18.60;99.90;;;;;;5001193;28;20453;-76
2022/07/13 04:29:31;;;;;;;6.40;3.93;;;18.60;99.90;;;;;;4995809;28;20836;-75
2022/07/13 04:31:59;;;;;;;3.23;2.93;;;18.70;99.90;;;;;;5002480;28;20994;-75
2022/07/13 04:34:25;;;;;;;4.13;3.20;;;18.60;99.90;;;;;;5009510;28;20440;-75
2022/07/13 04:36:52;;;;;;;4.13;3.13;;;18.60;99.90;;;;;;5007271;28;20453;-75
2022/07/13 04:39:19;;;;;;;4.23;3.10;;;18.60;99.90;;;;;;4999108;28;20481;-75
2022/07/13 04:41:46;;;;;;;3.13;2.70;;;18.60;99.90;;;;;;4998037;28;20883;-75
2022/07/13 04:44:12;;;;;;;3.00;2.80;;;18.50;99.90;;;;;;4996879;28;20429;-75
2022/07/13 04:46:39;;;;;;;6.30;3.00;;;18.50;99.90;;;;;;5001781;28;20504;-75
2022/07/13 04:49:07;;;;;;;3.60;3.30;;;18.40;99.90;;;;;;5000898;28;20483;-75
2022/07/13 04:51:35;;;;;;;3.73;2.80;;;18.40;99.90;;;;;;5004229;28;20433;-75
2022/07/13 04:54:02;;;;;;;8.90;3.17;;;18.50;99.90;;;;;;5004109;28;20461;-75
2022/07/13 04:56:28;;;;;;;2.97;2.77;;;18.40;99.90;;;;;;5004877;28;20518;-75
2022/07/13 04:58:55;;;;;;;3.20;3.00;;;18.40;99.90;;;;;;4997552;28;20457;-76
2022/07/13 05:01:22;;;;;;;5.80;3.10;;;18.40;99.90;;;;;;5005551;28;20998;-76
2022/07/13 05:03:49;;;;;;;6.63;3.10;;;18.40;99.90;;;;;;5000465;28;20450;-75
2022/07/13 05:06:17;;;;;;;5.07;3.40;;;18.30;99.90;;;;;;4990586;28;20977;-75
2022/07/13 05:08:43;;;;;;;3.93;3.63;;;18.30;99.90;;;;;;4997697;28;20426;-75
2022/07/13 05:11:10;;;;;;;4.23;3.77;;;18.30;99.90;;;;;;4998290;28;20475;-75
2022/07/13 05:13:37;;;;;;;3.50;3.17;;;18.40;99.90;;;;;;5003858;28;20985;-75
2022/07/13 05:16:04;;;;;;;3.50;3.20;;;18.40;99.90;;;;;;5000513;28;20478;-75
2022/07/13 05:18:31;;;;;;;4.00;3.27;;;18.50;99.90;;;;;;5001089;28;20827;-76
2022/07/13 05:20:57;;;;;;;3.30;3.00;;;18.60;99.90;;;;;;5000900;28;20512;-75
2022/07/13 05:23:25;;;;;;;3.30;3.00;;;18.70;99.90;;;;;;4995305;28;21003;-75
2022/07/13 05:25:52;;;;;;;3.70;3.50;;;18.90;99.90;;;;;;5002891;28;20460;-76
2022/07/13 05:28:18;;;;;;;3.60;3.30;;;19.00;99.90;;;;;;5000191;28;20492;-75
2022/07/13 05:30:45;;;;;;;3.77;3.47;;;19.10;99.90;;;;;;4997013;28;20430;-75
2022/07/13 05:33:12;;;;;;;4.83;3.87;;;19.20;99.90;;;;;;5000351;28;20925;-75
2022/07/13 05:35:39;;;;;;;3.73;3.37;;;19.30;99.90;;;;;;4996643;28;21178;-75
2022/07/13 05:38:05;;;;;;;4.40;3.70;;;19.40;99.90;;;;;;5003589;28;20429;-75
2022/07/13 05:40:33;;;;;;;4.73;3.70;;;19.60;99.90;;;;;;5004705;28;20479;-75
2022/07/13 05:43:00;;;;;;;3.60;3.30;;;19.70;99.90;;;;;;5000626;28;20459;-75
2022/07/13 05:45:26;;;;;;;6.83;3.00;;;19.60;99.90;;;;;;4996203;28;20448;-75
2022/07/13 05:47:53;;;;;;;3.80;3.10;;;19.70;99.90;;;;;;4993673;28;20426;-75
2022/07/13 05:50:20;;;;;;;6.73;3.60;;;19.80;99.90;;;;;;4994478;28;20481;-75
2022/07/13 05:52:46;;;;;;;3.93;3.53;;;20.00;99.90;;;;;;4998493;28;20421;-75
2022/07/13 05:55:13;;;;;;;4.03;3.40;;;20.00;99.90;;;;;;4991653;28;20937;-75
2022/07/13 05:57:41;;;;;;;7.17;3.10;;;20.10;99.90;;;;;;4999733;28;20806;-75
2022/07/13 06:00:11;;;;;;;3.77;3.20;;;20.30;99.90;;;;;;4994005;28;20921;-76
2022/07/13 06:02:38;;;;;;;3.37;3.07;;;20.40;99.90;;;;;;4995456;28;20473;-76
2022/07/13 06:05:05;;;;;;;3.17;2.83;;;20.50;99.90;;;;;;4999019;28;20802;-75
2022/07/13 06:07:32;;;;;;;3.07;2.87;;;20.70;99.90;;;;;;5000912;28;20773;-76
2022/07/13 06:10:00;;;;;;;4.57;3.10;;;20.70;99.90;;;;;;5000401;28;21010;-75
2022/07/13 06:12:26;;;;;;;4.53;3.17;;;20.50;99.90;;;;;;5001487;28;20458;-75
2022/07/13 06:14:54;;;;;;;2.67;2.47;;;20.40;99.90;;;;;;4999001;28;20455;-75
2022/07/13 06:17:21;;;;;;;3.57;3.27;;;20.30;99.90;;;;;;4995465;28;20452;-76
2022/07/13 06:19:49;;;;;;;4.23;3.40;;;20.30;99.90;;;;;;4999014;28;20482;-75
2022/07/13 06:22:16;;;;;;;5.47;3.70;;;20.40;99.90;;;;;;4998321;28;20554;-76
2022/07/13 06:24:42;;;;;;;3.30;3.00;;;20.30;99.90;;;;;;4995660;28;20462;-75
2022/07/13 06:27:09;;;;;;;3.33;3.13;;;20.40;99.90;;;;;;4997266;28;20468;-76
2022/07/13 06:29:36;;;;;;;3.80;3.50;;;20.30;99.90;;;;;;4995551;28;20459;-76
2022/07/13 06:32:05;;;;;;;4.77;3.43;;;20.30;99.90;;;;;;4995023;28;20955;-75
2022/07/13 06:34:32;;;;;;;3.07;2.87;;;20.30;99.90;;;;;;4995281;28;20799;-75
2022/07/13 06:36:58;;;;;;;4.63;3.77;;;20.30;99.90;;;;;;4995899;28;20470;-75
2022/07/13 06:39:25;;;;;;;6.00;3.43;;;20.40;99.90;;;;;;4997255;28;20492;-76
2022/07/13 06:41:52;;;;;;;4.23;3.20;;;20.40;99.90;;;;;;4997023;28;20494;-77
2022/07/13 06:44:18;;;;;;;4.73;3.30;;;20.40;99.90;;;;;;5002759;28;20454;-75
2022/07/13 06:46:45;;;;;;;6.83;2.87;;;20.50;99.90;;;;;;4993638;28;20467;-77
2022/07/13 06:49:13;;;;;;;3.23;3.03;;;20.50;99.90;;;;;;5005584;28;20524;-77
2022/07/13 06:51:40;;;;;;;4.97;3.43;;;20.60;99.90;;;;;;4997924;28;21133;-78
2022/07/13 06:54:07;;;;;;;5.33;2.97;;;20.80;99.90;;;;;;4996401;28;20521;-77
2022/07/13 06:56:33;;;;;;;3.60;3.00;;;20.90;99.90;;;;;;4993156;28;20510;-77
2022/07/13 06:59:00;;;;;;;3.00;2.80;;;21.10;99.90;;;;;;4993682;28;20455;-77
2022/07/13 07:01:28;;;;;;;3.47;3.10;;;21.30;99.90;;;;;;4998319;28;20491;-78
2022/07/13 07:03:55;;;;;;;3.40;3.10;;;21.50;99.90;;;;;;4993188;28;20463;-77
2022/07/13 07:06:23;;;;;;;8.67;3.20;;;21.70;99.90;;;;;;4993913;28;20483;-76
2022/07/13 07:08:50;;;;;;;4.83;3.80;;;21.90;99.90;;;;;;5001307;28;20505;-77
2022/07/13 07:11:17;;;;;;;4.90;2.93;;;21.80;99.90;;;;;;4996157;28;20553;-76
2022/07/13 07:13:43;;;;;;;4.93;2.87;;;21.80;99.90;;;;;;4990023;28;20534;-77
2022/07/13 07:16:10;;;;;;;9.00;4.57;;;21.90;99.90;;;;;;5007061;28;20524;-77
2022/07/13 07:18:37;;;;;;;7.83;3.30;;;21.90;99.90;;;;;;4994682;28;21224;-76
2022/07/13 07:21:04;;;;;;;5.00;3.63;;;21.80;99.90;;;;;;4994967;28;20486;-77
2022/07/13 07:23:32;;;;;;;4.20;3.33;;;21.70;99.90;;;;;;4995127;28;20459;-77
2022/07/13 07:25:59;;;;;;;4.40;3.57;;;21.60;99.90;;;;;;5000434;28;20478;-77
2022/07/13 07:28:26;;;;;;;6.43;3.30;;;21.60;99.90;;;;;;4995682;28;20486;-75
2022/07/13 07:30:53;;;;;;;5.70;3.50;;;21.60;99.90;;;;;;4995592;28;20966;-75
2022/07/13 07:33:20;;;;;;;10.93;3.43;;;21.50;99.90;;;;;;4994671;28;20459;-76
2022/07/13 07:35:47;;;;;;;3.23;2.77;;;21.50;99.90;;;;;;5000586;28;20906;-75
2022/07/13 07:38:14;;;;;;;5.67;3.20;;;21.50;99.90;;;;;;4989382;28;20492;-76
2022/07/13 07:40:42;;;;;;;9.03;3.17;;;21.60;99.90;;;;;;4995521;28;20482;-78
2022/07/13 07:43:09;;;;;;;4.37;3.47;;;21.60;99.90;;;;;;5003415;28;20958;-77
2022/07/13 07:45:35;;;;;;;4.50;3.13;;;21.60;99.90;;;;;;4998999;28;20483;-78
2022/07/13 07:48:02;;;;;;;3.40;3.20;;;21.60;99.90;;;;;;4995999;28;20454;-78
2022/07/13 07:50:29;;;;;;;6.97;3.23;;;21.60;99.90;;;;;;4995227;28;20451;-78
2022/07/13 07:52:56;;;;;;;4.10;3.13;;;21.60;99.90;;;;;;5002332;28;20516;-78
2022/07/13 07:55:23;;;;;;;3.53;3.20;;;21.50;99.90;;;;;;4995508;28;20471;-77
2022/07/13 07:57:52;;;;;;;3.40;3.00;;;21.50;99.90;;;;;;5003136;28;20447;-77
2022/07/13 08:00:19;;;;;;;4.47;3.20;;;21.60;99.90;;;;;;5000608;28;20494;-77
2022/07/13 08:02:47;;;;;;;3.57;3.30;;;21.50;99.90;;;;;;4996582;28;20451;-76
2022/07/13 08:05:14;;;;;;;6.10;3.30;;;21.40;99.90;;;;;;4998563;28;20454;-77
2022/07/13 08:07:42;;;;;;;5.33;3.33;;;21.40;99.90;;;;;;4997666;28;20840;-76
2022/07/13 08:10:09;;;;;;;4.70;3.47;;;21.50;99.90;;;;;;5004261;28;20828;-76
2022/07/13 08:12:36;;;;;;;5.73;3.60;;;21.50;99.90;;;;;;5000028;28;20455;-77
2022/07/13 08:15:07;;;;;;;4.90;3.67;;;21.50;99.90;;;;;;5004306;28;20462;-76
2022/07/13 08:17:34;;;;;;;6.03;4.07;;;21.60;99.90;;;;;;5002064;28;20490;-76
2022/07/13 08:20:00;;;;;;;5.17;3.57;;;21.50;99.90;;;;;;4994122;28;20455;-76
2022/07/13 08:22:27;;;;;;;9.03;4.10;;;21.50;99.90;;;;;;4997552;28;20498;-76
2022/07/13 08:24:54;;;;;;;6.30;3.83;;;21.50;99.90;;;;;;4996084;28;21284;-76
2022/07/13 08:27:21;;;;;;;5.30;3.43;;;21.60;99.90;;;;;;5001526;28;20629;-76
2022/07/13 08:29:48;;;;;;;4.70;3.20;;;21.60;99.90;;;;;;5002642;28;20522;-76
2022/07/13 08:32:16;;;;;;;4.93;3.30;;;21.70;99.90;;;;;;5001239;28;20457;-76
2022/07/13 08:40:11;;;;;;;4.73;3.20;;;22.00;99.90;;;;;;4996022;28;20482;-76
2022/07/13 08:42:38;;;;;;;9.23;3.57;;;22.20;99.90;;;;;;4996014;28;20454;-77
2022/07/13 08:45:06;;;;;;;4.70;3.67;;;22.40;99.90;;;;;;4987205;28;20458;-76
2022/07/13 08:47:36;;;;;;;15.53;3.63;;;22.60;99.90;;;;;;4990354;28;20498;-76
2022/07/13 08:50:06;;;;;;;7.43;3.20;;;22.80;99.90;;;;;;4990196;28;20468;-76
2022/07/13 08:52:35;;;;;;;8.30;3.23;;;23.00;99.90;;;;;;4988774;28;20516;-75
2022/07/13 08:55:03;;;;;;;10.47;3.27;;;23.30;99.90;;;;;;4986607;28;20451;-75
2022/07/13 08:57:30;;;;;;;4.07;3.73;;;23.40;99.90;;;;;;4987956;28;20451;-76
2022/07/13 08:59:56;;;;;;;5.60;3.50;;;23.50;99.90;;;;;;4988498;28;20805;-77
2022/07/13 09:02:23;;;;;;;8.53;3.07;;;23.60;99.90;;;;;;4987647;28;20839;-77
2022/07/13 09:04:51;;;;;;;4.30;3.47;;;23.80;99.90;;;;;;4987292;28;20481;-76
2022/07/13 09:07:18;;;;;;;8.07;3.37;;;23.80;99.90;;;;;;4987934;28;21017;-77
2022/07/13 09:09:45;;;;;;;15.73;3.50;;;23.90;99.90;;;;;;4987223;28;20497;-76
2022/07/13 09:12:17;;;;;;;4.10;3.40;;;24.10;99.90;;;;;;4988456;28;20510;-76
2022/07/13 09:14:49;;;;;;;4.83;3.17;;;24.10;99.90;;;;;;4988066;28;20463;-76
2022/07/13 09:17:31;;;;;;;3.53;3.20;;;24.30;99.90;;;;;;4988519;28;20463;-76
2022/07/13 09:20:03;;;;;;;6.40;3.03;;;24.50;99.90;;;;;;4986802;28;20458;-76
2022/07/13 09:22:30;;;;;;;10.50;3.30;;;24.60;99.90;;;;;;4988708;28;20482;-76
2022/07/13 09:24:58;;;;;;;4.17;3.13;;;24.80;99.90;;;;;;4986894;28;20541;-76
2022/07/13 09:27:24;;;;;;;6.40;2.80;;;24.90;99.90;;;;;;4989372;28;20466;-76
2022/07/13 09:29:51;;;;;;;8.83;3.10;;;25.00;99.90;;;;;;4988891;28;20454;-76
2022/07/13 09:32:18;;;;;;;22.23;3.37;;;25.10;99.90;;;;;;4985359;28;20451;-76
2022/07/13 09:34:50;;;;;;;5.10;2.87;;;25.20;99.90;;;;;;4987955;28;20459;-76
2022/07/13 09:37:20;;;;;;;12.97;2.43;;;25.40;99.90;;;;;;4987355;28;20510;-77
2022/07/13 09:39:57;;;;;;;3.40;3.00;;;25.60;99.90;;;;;;4986864;28;20447;-76
2022/07/13 09:42:27;;;;;;;7.10;2.50;;;25.80;99.90;;;;;;4987572;28;20486;-76
2022/07/13 09:47:44;;;;;;;13.87;3.10;;;26.10;99.90;;;;;;4985492;28;20949;-76
2022/07/13 09:50:12;;;;;;;7.10;2.60;;;26.30;99.90;;;;;;4985810;28;20451;-76
2022/07/13 09:52:40;;;;;;;12.20;2.57;;;26.30;99.90;;;;;;4985905;28;20788;-76
2022/07/13 09:55:11;;;;;;;5.53;2.80;;;26.30;99.90;;;;;;4965007;28;21116;-76
2022/07/13 09:57:47;;;;;;;12.10;2.50;;;26.30;99.90;;;;;;4985430;28;20998;-76
2022/07/13 10:00:17;;;;;;;6.50;2.40;;;26.40;99.90;;;;;;4988278;28;20827;-76
2022/07/13 10:02:47;;;;;;;2.50;2.30;;;26.60;99.90;;;;;;4986959;28;21102;-76
2022/07/13 10:05:15;;;;;;;2.77;2.57;;;26.80;99.90;;;;;;4986561;28;20456;-76
2022/07/13 10:07:44;;;;;;;5.27;2.60;;;27.10;99.90;;;;;;4986193;28;20456;-77
2022/07/13 10:10:13;;;;;;;9.27;2.60;;;27.30;99.90;;;;;;4987349;28;20900;-77
2022/07/13 10:12:40;;;;;;;6.50;2.83;;;27.40;99.90;;;;;;4988279;28;21607;-77
2022/07/13 10:15:08;;;;;;;4.93;2.20;;;27.60;99.90;;;;;;4985474;28;20475;-77
2022/07/13 10:17:35;;;;;;;5.60;1.97;;;27.70;99.90;;;;;;4987149;28;20470;-77
2022/07/13 10:20:07;;;;;;;5.13;2.20;;;27.70;99.90;;;;;;4985637;28;20459;-77
2022/07/13 10:22:39;;;;;;;4.70;2.27;;;27.80;99.90;;;;;;4986284;28;20495;-75
2022/07/13 10:25:09;;;;;;;4.70;2.37;;;28.00;99.90;;;;;;4985479;28;20905;-76
2022/07/13 10:27:37;;;;;;;7.30;2.17;;;28.00;99.90;;;;;;4986649;28;20971;-76
2022/07/13 10:30:06;;;;;;;5.70;2.10;;;28.20;99.90;;;;;;4984262;28;20542;-76
2022/07/13 10:32:35;;;;;;;6.20;2.30;;;28.30;99.90;;;;;;4983817;28;20504;-76
2022/07/13 10:35:04;;;;;;;4.07;2.53;;;28.40;99.90;;;;;;4985677;28;20449;-76
2022/07/13 10:38:15;;;;;;;6.53;2.30;;;28.40;99.90;;;;;;4986408;28;20574;-75
2022/07/13 10:40:43;;;;;;;5.87;2.00;;;28.60;99.90;;;;;;4985200;28;20454;-76
2022/07/13 10:43:18;;;;;;;4.03;2.00;;;29.00;99.90;;;;;;4983757;28;20494;-76
2022/07/13 10:45:48;;;;;;;6.07;2.13;;;29.20;99.90;;;;;;4983938;28;20552;-76
2022/07/13 10:48:47;;;;;;;2.70;1.80;;;29.70;99.90;;;;;;4987957;28;20447;-76
2022/07/13 10:51:21;;;;;;;2.10;1.90;;;30.00;99.90;;;;;;4941751;28;20543;-76
2022/07/13 10:54:09;;;;;;;3.30;1.93;;;29.90;99.90;;;;;;4984843;28;20443;-76
2022/07/13 10:56:37;;;;;;;4.50;1.97;;;30.20;99.90;;;;;;4985349;28;20475;-76
2022/07/13 10:59:04;;;;;;;4.63;2.30;;;30.50;99.90;;;;;;4984971;28;20550;-76
2022/07/13 11:01:42;;;;;;;1.63;1.53;;;31.00;99.90;;;;;;4985969;28;20479;-76
2022/07/13 11:04:11;;;;;;;2.50;1.70;;;31.30;99.90;;;;;;4985225;28;20939;-76
2022/07/13 11:06:39;;;;;;;5.63;1.60;;;31.90;99.90;;;;;;4985485;28;20471;-76
2022/07/13 11:09:12;;;;;;;3.20;1.60;;;32.10;99.90;;;;;;4988377;28;20542;-77
2022/07/13 11:11:48;;;;;;;1.73;1.63;;;32.40;99.90;;;;;;4984740;28;20446;-76
2022/07/13 11:14:49;;;;;;;5.67;2.00;;;33.00;99.90;;;;;;4986007;28;20535;-77
2022/07/13 11:17:18;;;;;;;6.07;1.80;;;33.10;99.90;;;;;;4985833;28;20484;-76
2022/07/13 11:19:53;;;;;;;1.77;1.67;;;33.00;99.90;;;;;;4983398;28;20488;-76
2022/07/13 11:22:20;;;;;;;1.70;1.60;;;32.90;99.90;;;;;;4985703;28;20505;-77
2022/07/13 11:25:14;;;;;;;1.70;1.40;;;32.90;99.90;;;;;;4984202;28;20458;-75
2022/07/13 11:28:00;;;;;;;2.53;1.80;;;32.70;99.40;;;;;;4985837;28;20454;-75
2022/07/13 11:30:29;;;;;;;3.20;1.83;;;32.30;98.00;;;;;;4987744;28;20451;-76
2022/07/13 11:32:57;;;;;;;3.60;1.83;;;31.80;97.80;;;;;;4989290;28;20806;-76
2022/07/13 11:35:24;;;;;;;2.90;1.70;;;31.50;97.00;;;;;;4990054;28;20474;-76
2022/07/13 11:37:52;;;;;;;3.83;1.90;;;31.60;97.50;;;;;;4987455;28;20524;-77
2022/07/13 11:40:29;;;;;;;4.17;2.00;;;31.60;96.30;;;;;;4937931;28;20904;-76
2022/07/13 11:42:59;;;;;;;1.70;1.60;;;31.60;95.10;;;;;;4988917;28;20493;-75
2022/07/13 11:45:28;;;;;;;2.73;1.90;;;31.60;95.40;;;;;;4987369;28;20481;-75
2022/07/13 11:47:59;;;;;;;3.30;1.80;;;31.70;94.90;;;;;;4987755;28;20480;-75
2022/07/13 11:50:40;;;;;;;2.80;1.67;;;31.50;94.80;;;;;;4990720;28;20509;-76
2022/07/13 11:53:07;;;;;;;2.00;1.80;;;31.30;94.20;;;;;;4987635;28;20454;-77
2022/07/13 11:55:35;;;;;;;10.87;2.07;;;31.20;94.40;;;;;;4989454;28;20475;-77
2022/07/13 11:58:03;;;;;;;2.40;1.87;;;30.90;94.40;;;;;;4989087;28;20510;-78
2022/07/13 12:00:31;;;;;;;1.63;1.53;;;30.60;94.50;;;;;;4988951;28;20461;-77
2022/07/13 12:02:57;;;;;;;8.73;1.70;;;30.50;94.50;;;;;;4989181;28;20501;-77
2022/07/13 12:05:25;;;;;;;11.43;1.90;;;30.20;94.70;;;;;;4986671;28;20483;-78
2022/07/13 12:08:03;;;;;;;1.70;1.60;;;30.20;95.40;;;;;;4989023;28;20487;-78
2022/07/13 12:10:30;;;;;;;2.90;2.07;;;30.30;94.50;;;;;;4989701;28;20466;-77
2022/07/13 12:12:57;;;;;;;3.43;1.83;;;30.10;95.00;;;;;;4987692;28;20453;-77
2022/07/13 12:15:26;;;;;;;1.77;1.67;;;30.00;94.90;;;;;;4989100;28;20482;-78
2022/07/13 12:17:53;;;;;;;4.83;1.70;;;30.10;96.00;;;;;;4987246;28;20462;-79
2022/07/13 12:20:21;;;;;;;3.00;1.80;;;30.40;94.80;;;;;;4986628;28;21166;-78
2022/07/13 12:22:52;;;;;;;4.00;1.90;;;31.00;95.00;;;;;;4987529;28;20483;-78
2022/07/13 12:25:26;;;;;;;1.80;1.70;;;31.30;93.90;;;;;;4987477;28;20479;-76
2022/07/13 12:27:53;;;;;;;1.70;1.60;;;31.50;93.00;;;;;;4986998;28;20463;-78
2022/07/13 12:30:20;;;;;;;1.93;1.73;;;31.70;93.00;;;;;;4988642;28;20447;-77
2022/07/13 12:32:59;;;;;;;3.13;1.70;;;31.80;92.50;;;;;;4987664;28;20455;-77
2022/07/13 12:35:27;;;;;;;4.40;1.43;;;32.10;92.50;;;;;;4987542;28;20470;-77
2022/07/13 12:37:55;;;;;;;1.70;1.57;;;32.30;92.00;;;;;;4989457;28;20534;-77
2022/07/13 12:40:39;;;;;;;1.40;1.30;;;32.60;91.50;;;;;;4987403;28;20463;-77
2022/07/13 12:43:06;;;;;;;2.60;1.40;;;33.10;90.60;;;;;;4988523;28;21000;-77
2022/07/13 12:45:33;;;;;;;2.10;1.60;;;33.20;89.80;;;;;;4987966;28;20479;-78
2022/07/13 12:48:02;;;;;;;1.90;1.70;;;33.50;89.00;;;;;;4985861;28;20937;-78
2022/07/13 12:50:30;;;;;;;3.40;1.53;;;33.30;89.30;;;;;;4987300;28;20895;-77
2022/07/13 12:53:01;;;;;;;2.60;1.67;;;33.50;90.20;;;;;;4989552;28;20447;-78
2022/07/13 12:55:27;;;;;;;2.03;1.47;;;33.90;88.60;;;;;;4988519;28;20467;-77
2022/07/13 12:57:54;;;;;;;2.17;1.63;;;33.80;86.60;;;;;;4987214;28;20460;-76
2022/07/13 13:00:26;;;;;;;2.53;1.53;;;33.80;87.40;;;;;;4987481;28;20830;-75